sensor_id;sensor_type;location;lat;lon;timestamp;P1;durP1;ratioP1;P2;durP2;ratioP2
35576;SDS011;21680;52.400;16.920;2024-02-23T00:02:14;11.10;;;5.50;;
35576;SDS011;21680;52.400;16.920;2024-02-23T00:04:39;7.20;;;4.70;;
35576;SDS011;21680;52.400;16.920;2024-02-23T00:07:05;9.80;;;5.30;;
35576;SDS011;21680;52.400;16.920;2024-02-23T00:09:31;9.60;;;5.00;;
35576;SDS011;21680;52.400;16.920;2024-02-23T00:12:03;7.80;;;4.20;;
35576;SDS011;21680;52.400;16.920;2024-02-23T00:14:29;6.50;;;4.30;;
35576;SDS011;21680;52.400;16.920;2024-02-23T00:16:56;9.00;;;4.20;;
35576;SDS011;21680;52.400;16.920;2024-02-23T00:19:22;12.40;;;5.40;;
35576;SDS011;21680;52.400;16.920;2024-02-23T00:21:49;9.20;;;4.50;;
35576;SDS011;21680;52.400;16.920;2024-02-23T00:24:16;7.00;;;3.90;;
35576;SDS011;21680;52.400;16.920;2024-02-23T00:26:46;7.80;;;4.40;;
35576;SDS011;21680;52.400;16.920;2024-02-23T00:29:11;7.10;;;4.50;;
35576;SDS011;21680;52.400;16.920;2024-02-23T00:31:40;5.90;;;3.90;;
35576;SDS011;21680;52.400;16.920;2024-02-23T00:34:10;8.60;;;4.70;;
35576;SDS011;21680;52.400;16.920;2024-02-23T00:36:41;7.30;;;4.10;;
35576;SDS011;21680;52.400;16.920;2024-02-23T00:39:10;8.10;;;4.20;;
35576;SDS011;21680;52.400;16.920;2024-02-23T00:41:35;5.30;;;3.30;;
35576;SDS011;21680;52.400;16.920;2024-02-23T00:44:05;8.30;;;4.00;;
35576;SDS011;21680;52.400;16.920;2024-02-23T00:46:31;19.50;;;4.60;;
35576;SDS011;21680;52.400;16.920;2024-02-23T00:48:57;8.00;;;3.80;;
35576;SDS011;21680;52.400;16.920;2024-02-23T00:51:25;7.20;;;3.80;;
35576;SDS011;21680;52.400;16.920;2024-02-23T00:53:53;8.30;;;4.00;;
35576;SDS011;21680;52.400;16.920;2024-02-23T00:56:18;5.60;;;3.60;;
35576;SDS011;21680;52.400;16.920;2024-02-23T00:58:44;5.50;;;3.40;;
35576;SDS011;21680;52.400;16.920;2024-02-23T01:01:09;6.40;;;3.60;;
35576;SDS011;21680;52.400;16.920;2024-02-23T01:03:34;5.60;;;3.20;;
35576;SDS011;21680;52.400;16.920;2024-02-23T01:06:00;6.10;;;3.50;;
35576;SDS011;21680;52.400;16.920;2024-02-23T01:08:25;5.40;;;3.50;;
35576;SDS011;21680;52.400;16.920;2024-02-23T01:10:50;7.60;;;3.60;;
35576;SDS011;21680;52.400;16.920;2024-02-23T01:13:16;7.50;;;3.30;;
35576;SDS011;21680;52.400;16.920;2024-02-23T01:15:41;7.30;;;3.10;;
35576;SDS011;21680;52.400;16.920;2024-02-23T01:18:08;5.60;;;3.10;;
35576;SDS011;21680;52.400;16.920;2024-02-23T01:20:33;6.20;;;3.30;;
35576;SDS011;21680;52.400;16.920;2024-02-23T01:22:59;5.90;;;2.50;;
35576;SDS011;21680;52.400;16.920;2024-02-23T01:25:25;6.20;;;3.40;;
35576;SDS011;21680;52.400;16.920;2024-02-23T01:27:50;7.80;;;3.10;;
35576;SDS011;21680;52.400;16.920;2024-02-23T01:30:15;7.10;;;4.10;;
35576;SDS011;21680;52.400;16.920;2024-02-23T01:32:40;7.90;;;3.20;;
35576;SDS011;21680;52.400;16.920;2024-02-23T01:35:07;5.20;;;3.30;;
35576;SDS011;21680;52.400;16.920;2024-02-23T01:37:33;5.00;;;3.20;;
35576;SDS011;21680;52.400;16.920;2024-02-23T01:39:59;5.20;;;3.00;;
35576;SDS011;21680;52.400;16.920;2024-02-23T01:42:25;5.10;;;3.10;;
35576;SDS011;21680;52.400;16.920;2024-02-23T01:44:51;4.60;;;2.70;;
35576;SDS011;21680;52.400;16.920;2024-02-23T01:47:17;6.70;;;2.70;;
35576;SDS011;21680;52.400;16.920;2024-02-23T01:49:43;4.80;;;2.80;;
35576;SDS011;21680;52.400;16.920;2024-02-23T01:52:11;6.20;;;3.00;;
35576;SDS011;21680;52.400;16.920;2024-02-23T01:54:38;4.10;;;2.40;;
35576;SDS011;21680;52.400;16.920;2024-02-23T01:57:04;3.80;;;2.40;;
35576;SDS011;21680;52.400;16.920;2024-02-23T01:59:30;4.80;;;3.00;;
35576;SDS011;21680;52.400;16.920;2024-02-23T02:01:55;8.90;;;2.60;;
35576;SDS011;21680;52.400;16.920;2024-02-23T02:04:21;5.20;;;2.70;;
35576;SDS011;21680;52.400;16.920;2024-02-23T02:06:46;3.80;;;2.20;;
35576;SDS011;21680;52.400;16.920;2024-02-23T02:09:12;4.60;;;2.60;;
35576;SDS011;21680;52.400;16.920;2024-02-23T02:11:47;6.50;;;2.80;;
35576;SDS011;21680;52.400;16.920;2024-02-23T02:14:13;3.40;;;2.40;;
35576;SDS011;21680;52.400;16.920;2024-02-23T02:16:41;4.70;;;2.20;;
35576;SDS011;21680;52.400;16.920;2024-02-23T02:19:06;3.50;;;2.50;;
35576;SDS011;21680;52.400;16.920;2024-02-23T02:21:32;3.90;;;2.20;;
35576;SDS011;21680;52.400;16.920;2024-02-23T02:23:58;6.20;;;2.70;;
35576;SDS011;21680;52.400;16.920;2024-02-23T02:26:24;3.40;;;2.40;;
35576;SDS011;21680;52.400;16.920;2024-02-23T02:28:49;4.50;;;2.20;;
35576;SDS011;21680;52.400;16.920;2024-02-23T02:31:14;4.50;;;2.00;;
35576;SDS011;21680;52.400;16.920;2024-02-23T02:33:41;3.90;;;2.40;;
35576;SDS011;21680;52.400;16.920;2024-02-23T02:36:06;3.10;;;2.00;;
35576;SDS011;21680;52.400;16.920;2024-02-23T02:38:32;2.30;;;1.60;;
35576;SDS011;21680;52.400;16.920;2024-02-23T02:41:00;3.80;;;1.90;;
35576;SDS011;21680;52.400;16.920;2024-02-23T02:43:26;4.40;;;1.90;;
35576;SDS011;21680;52.400;16.920;2024-02-23T02:45:52;3.70;;;1.70;;
35576;SDS011;21680;52.400;16.920;2024-02-23T02:48:18;2.40;;;1.80;;
35576;SDS011;21680;52.400;16.920;2024-02-23T02:50:43;3.60;;;1.80;;
35576;SDS011;21680;52.400;16.920;2024-02-23T02:53:09;2.50;;;1.90;;
35576;SDS011;21680;52.400;16.920;2024-02-23T02:55:35;4.70;;;1.60;;
35576;SDS011;21680;52.400;16.920;2024-02-23T02:58:02;2.30;;;1.80;;
35576;SDS011;21680;52.400;16.920;2024-02-23T03:00:27;3.30;;;2.30;;
35576;SDS011;21680;52.400;16.920;2024-02-23T03:02:53;5.40;;;1.60;;
35576;SDS011;21680;52.400;16.920;2024-02-23T03:05:18;3.10;;;1.80;;
35576;SDS011;21680;52.400;16.920;2024-02-23T03:07:44;2.70;;;1.60;;
35576;SDS011;21680;52.400;16.920;2024-02-23T03:10:10;3.70;;;1.70;;
35576;SDS011;21680;52.400;16.920;2024-02-23T03:12:35;4.30;;;1.50;;
35576;SDS011;21680;52.400;16.920;2024-02-23T03:15:00;4.10;;;1.90;;
35576;SDS011;21680;52.400;16.920;2024-02-23T03:17:27;3.10;;;2.00;;
35576;SDS011;21680;52.400;16.920;2024-02-23T03:19:52;4.50;;;1.80;;
35576;SDS011;21680;52.400;16.920;2024-02-23T03:22:18;2.60;;;1.70;;
35576;SDS011;21680;52.400;16.920;2024-02-23T03:24:43;2.40;;;1.90;;
35576;SDS011;21680;52.400;16.920;2024-02-23T03:27:08;2.70;;;1.60;;
35576;SDS011;21680;52.400;16.920;2024-02-23T03:29:33;4.50;;;1.80;;
35576;SDS011;21680;52.400;16.920;2024-02-23T03:31:59;5.50;;;1.80;;
35576;SDS011;21680;52.400;16.920;2024-02-23T03:34:26;5.20;;;1.80;;
35576;SDS011;21680;52.400;16.920;2024-02-23T03:36:52;5.50;;;1.50;;
35576;SDS011;21680;52.400;16.920;2024-02-23T03:39:17;5.70;;;2.10;;
35576;SDS011;21680;52.400;16.920;2024-02-23T03:41:43;6.20;;;1.70;;
35576;SDS011;21680;52.400;16.920;2024-02-23T03:44:08;5.90;;;1.90;;
35576;SDS011;21680;52.400;16.920;2024-02-23T03:46:33;4.10;;;1.70;;
35576;SDS011;21680;52.400;16.920;2024-02-23T03:48:59;3.20;;;1.80;;
35576;SDS011;21680;52.400;16.920;2024-02-23T03:51:25;5.30;;;2.20;;
35576;SDS011;21680;52.400;16.920;2024-02-23T03:53:50;3.70;;;1.60;;
35576;SDS011;21680;52.400;16.920;2024-02-23T03:56:15;3.50;;;1.60;;
35576;SDS011;21680;52.400;16.920;2024-02-23T03:58:41;2.90;;;1.40;;
35576;SDS011;21680;52.400;16.920;2024-02-23T04:01:06;6.00;;;1.90;;
35576;SDS011;21680;52.400;16.920;2024-02-23T04:03:31;3.00;;;1.30;;
35576;SDS011;21680;52.400;16.920;2024-02-23T04:05:57;1.70;;;1.20;;
35576;SDS011;21680;52.400;16.920;2024-02-23T04:08:22;4.20;;;1.80;;
35576;SDS011;21680;52.400;16.920;2024-02-23T04:10:47;4.00;;;1.30;;
35576;SDS011;21680;52.400;16.920;2024-02-23T04:13:13;4.00;;;1.40;;
35576;SDS011;21680;52.400;16.920;2024-02-23T04:15:43;2.90;;;1.30;;
35576;SDS011;21680;52.400;16.920;2024-02-23T04:18:08;2.80;;;1.50;;
35576;SDS011;21680;52.400;16.920;2024-02-23T04:20:34;2.50;;;1.20;;
35576;SDS011;21680;52.400;16.920;2024-02-23T04:22:59;2.50;;;1.50;;
35576;SDS011;21680;52.400;16.920;2024-02-23T04:25:25;2.70;;;1.40;;
35576;SDS011;21680;52.400;16.920;2024-02-23T04:27:50;3.70;;;1.40;;
35576;SDS011;21680;52.400;16.920;2024-02-23T04:30:16;4.10;;;1.90;;
35576;SDS011;21680;52.400;16.920;2024-02-23T04:32:41;2.70;;;1.60;;
35576;SDS011;21680;52.400;16.920;2024-02-23T04:35:07;2.10;;;1.50;;
35576;SDS011;21680;52.400;16.920;2024-02-23T04:37:33;4.50;;;2.10;;
35576;SDS011;21680;52.400;16.920;2024-02-23T04:39:58;4.80;;;2.00;;
35576;SDS011;21680;52.400;16.920;2024-02-23T04:42:23;5.50;;;2.00;;
35576;SDS011;21680;52.400;16.920;2024-02-23T04:44:48;2.90;;;2.10;;
35576;SDS011;21680;52.400;16.920;2024-02-23T04:47:14;2.80;;;1.60;;
35576;SDS011;21680;52.400;16.920;2024-02-23T04:49:40;3.10;;;1.50;;
35576;SDS011;21680;52.400;16.920;2024-02-23T04:52:05;2.10;;;1.10;;
35576;SDS011;21680;52.400;16.920;2024-02-23T04:54:31;2.30;;;1.00;;
35576;SDS011;21680;52.400;16.920;2024-02-23T04:56:56;3.80;;;1.40;;
35576;SDS011;21680;52.400;16.920;2024-02-23T04:59:22;3.80;;;1.20;;
35576;SDS011;21680;52.400;16.920;2024-02-23T05:01:48;2.10;;;0.90;;
35576;SDS011;21680;52.400;16.920;2024-02-23T05:04:14;5.10;;;1.20;;
35576;SDS011;21680;52.400;16.920;2024-02-23T05:06:39;2.30;;;1.30;;
35576;SDS011;21680;52.400;16.920;2024-02-23T05:09:05;2.70;;;1.50;;
35576;SDS011;21680;52.400;16.920;2024-02-23T05:11:34;2.70;;;1.40;;
35576;SDS011;21680;52.400;16.920;2024-02-23T05:13:59;2.00;;;1.10;;
35576;SDS011;21680;52.400;16.920;2024-02-23T05:16:25;2.10;;;1.00;;
35576;SDS011;21680;52.400;16.920;2024-02-23T05:18:50;2.10;;;1.20;;
35576;SDS011;21680;52.400;16.920;2024-02-23T05:21:15;1.80;;;1.20;;
35576;SDS011;21680;52.400;16.920;2024-02-23T05:23:41;1.30;;;0.90;;
35576;SDS011;21680;52.400;16.920;2024-02-23T05:26:07;1.80;;;1.00;;
35576;SDS011;21680;52.400;16.920;2024-02-23T05:28:34;4.00;;;1.00;;
35576;SDS011;21680;52.400;16.920;2024-02-23T05:31:01;1.50;;;0.80;;
35576;SDS011;21680;52.400;16.920;2024-02-23T05:33:28;3.40;;;1.10;;
35576;SDS011;21680;52.400;16.920;2024-02-23T05:35:54;1.00;;;0.70;;
35576;SDS011;21680;52.400;16.920;2024-02-23T05:38:19;1.70;;;1.00;;
35576;SDS011;21680;52.400;16.920;2024-02-23T05:40:44;2.00;;;1.00;;
35576;SDS011;21680;52.400;16.920;2024-02-23T05:43:10;1.70;;;1.10;;
35576;SDS011;21680;52.400;16.920;2024-02-23T05:45:36;2.00;;;1.20;;
35576;SDS011;21680;52.400;16.920;2024-02-23T05:48:01;2.20;;;1.30;;
35576;SDS011;21680;52.400;16.920;2024-02-23T05:50:27;1.60;;;1.10;;
35576;SDS011;21680;52.400;16.920;2024-02-23T05:52:52;2.30;;;1.30;;
35576;SDS011;21680;52.400;16.920;2024-02-23T05:55:20;2.10;;;0.90;;
35576;SDS011;21680;52.400;16.920;2024-02-23T05:57:45;2.40;;;1.30;;
35576;SDS011;21680;52.400;16.920;2024-02-23T06:00:12;1.40;;;0.90;;
35576;SDS011;21680;52.400;16.920;2024-02-23T06:02:38;2.60;;;1.10;;
35576;SDS011;21680;52.400;16.920;2024-02-23T06:05:04;1.60;;;0.90;;
35576;SDS011;21680;52.400;16.920;2024-02-23T06:07:29;1.60;;;1.00;;
35576;SDS011;21680;52.400;16.920;2024-02-23T06:09:56;2.20;;;1.10;;
35576;SDS011;21680;52.400;16.920;2024-02-23T06:12:21;1.30;;;1.00;;
35576;SDS011;21680;52.400;16.920;2024-02-23T06:14:47;2.90;;;1.00;;
35576;SDS011;21680;52.400;16.920;2024-02-23T06:17:13;2.80;;;1.20;;
35576;SDS011;21680;52.400;16.920;2024-02-23T06:19:38;5.50;;;1.70;;
35576;SDS011;21680;52.400;16.920;2024-02-23T06:22:03;1.30;;;1.00;;
35576;SDS011;21680;52.400;16.920;2024-02-23T06:24:28;1.40;;;0.90;;
35576;SDS011;21680;52.400;16.920;2024-02-23T06:26:54;2.20;;;1.20;;
35576;SDS011;21680;52.400;16.920;2024-02-23T06:29:19;3.00;;;1.20;;
35576;SDS011;21680;52.400;16.920;2024-02-23T06:31:44;2.00;;;1.30;;
35576;SDS011;21680;52.400;16.920;2024-02-23T06:34:14;7.60;;;1.30;;
35576;SDS011;21680;52.400;16.920;2024-02-23T06:36:39;2.30;;;1.30;;
35576;SDS011;21680;52.400;16.920;2024-02-23T06:39:04;4.80;;;1.20;;
35576;SDS011;21680;52.400;16.920;2024-02-23T06:41:30;3.20;;;1.60;;
35576;SDS011;21680;52.400;16.920;2024-02-23T06:43:56;2.30;;;1.40;;
35576;SDS011;21680;52.400;16.920;2024-02-23T06:46:22;4.10;;;1.60;;
35576;SDS011;21680;52.400;16.920;2024-02-23T06:48:47;3.90;;;1.20;;
35576;SDS011;21680;52.400;16.920;2024-02-23T06:51:12;4.10;;;1.40;;
35576;SDS011;21680;52.400;16.920;2024-02-23T06:53:39;3.80;;;1.50;;
35576;SDS011;21680;52.400;16.920;2024-02-23T06:56:04;3.30;;;0.90;;
35576;SDS011;21680;52.400;16.920;2024-02-23T06:58:30;2.00;;;0.70;;
35576;SDS011;21680;52.400;16.920;2024-02-23T07:00:55;1.80;;;0.40;;
35576;SDS011;21680;52.400;16.920;2024-02-23T07:03:20;4.40;;;0.60;;
35576;SDS011;21680;52.400;16.920;2024-02-23T07:05:46;2.30;;;0.60;;
35576;SDS011;21680;52.400;16.920;2024-02-23T07:08:12;1.40;;;0.50;;
35576;SDS011;21680;52.400;16.920;2024-02-23T07:10:38;1.10;;;0.50;;
35576;SDS011;21680;52.400;16.920;2024-02-23T07:13:03;2.70;;;0.70;;
35576;SDS011;21680;52.400;16.920;2024-02-23T07:15:30;2.60;;;0.70;;
35576;SDS011;21680;52.400;16.920;2024-02-23T07:17:57;2.00;;;0.40;;
35576;SDS011;21680;52.400;16.920;2024-02-23T07:20:23;1.20;;;0.30;;
35576;SDS011;21680;52.400;16.920;2024-02-23T07:22:48;1.00;;;0.40;;
35576;SDS011;21680;52.400;16.920;2024-02-23T07:25:17;1.60;;;0.50;;
35576;SDS011;21680;52.400;16.920;2024-02-23T07:27:43;2.20;;;0.60;;
35576;SDS011;21680;52.400;16.920;2024-02-23T07:30:10;1.00;;;0.50;;
35576;SDS011;21680;52.400;16.920;2024-02-23T07:32:36;1.30;;;0.60;;
35576;SDS011;21680;52.400;16.920;2024-02-23T07:35:01;1.20;;;0.50;;
35576;SDS011;21680;52.400;16.920;2024-02-23T07:37:28;1.90;;;1.00;;
35576;SDS011;21680;52.400;16.920;2024-02-23T07:39:54;2.90;;;0.70;;
35576;SDS011;21680;52.400;16.920;2024-02-23T07:42:19;1.80;;;0.80;;
35576;SDS011;21680;52.400;16.920;2024-02-23T07:44:44;1.80;;;1.10;;
35576;SDS011;21680;52.400;16.920;2024-02-23T07:47:11;1.40;;;0.50;;
35576;SDS011;21680;52.400;16.920;2024-02-23T07:49:37;1.50;;;0.90;;
35576;SDS011;21680;52.400;16.920;2024-02-23T07:52:02;6.80;;;1.00;;
35576;SDS011;21680;52.400;16.920;2024-02-23T07:54:28;4.00;;;1.20;;
35576;SDS011;21680;52.400;16.920;2024-02-23T07:56:54;5.00;;;1.00;;
35576;SDS011;21680;52.400;16.920;2024-02-23T07:59:19;7.10;;;1.40;;
35576;SDS011;21680;52.400;16.920;2024-02-23T08:01:44;1.30;;;0.90;;
35576;SDS011;21680;52.400;16.920;2024-02-23T08:04:10;2.00;;;0.70;;
35576;SDS011;21680;52.400;16.920;2024-02-23T08:06:38;2.50;;;1.20;;
35576;SDS011;21680;52.400;16.920;2024-02-23T08:09:04;3.10;;;1.30;;
35576;SDS011;21680;52.400;16.920;2024-02-23T08:11:30;4.20;;;1.50;;
35576;SDS011;21680;52.400;16.920;2024-02-23T08:13:55;3.00;;;1.50;;
35576;SDS011;21680;52.400;16.920;2024-02-23T08:16:26;3.90;;;2.10;;
35576;SDS011;21680;52.400;16.920;2024-02-23T08:18:53;5.20;;;2.30;;
35576;SDS011;21680;52.400;16.920;2024-02-23T08:21:20;5.50;;;1.90;;
35576;SDS011;21680;52.400;16.920;2024-02-23T08:23:46;5.30;;;1.70;;
35576;SDS011;21680;52.400;16.920;2024-02-23T08:26:11;4.80;;;2.20;;
35576;SDS011;21680;52.400;16.920;2024-02-23T08:28:37;2.70;;;1.40;;
35576;SDS011;21680;52.400;16.920;2024-02-23T08:31:04;2.90;;;1.40;;
35576;SDS011;21680;52.400;16.920;2024-02-23T08:33:32;3.90;;;1.40;;
35576;SDS011;21680;52.400;16.920;2024-02-23T08:35:57;2.60;;;1.40;;
35576;SDS011;21680;52.400;16.920;2024-02-23T08:38:23;4.20;;;1.50;;
35576;SDS011;21680;52.400;16.920;2024-02-23T08:40:48;4.10;;;1.50;;
35576;SDS011;21680;52.400;16.920;2024-02-23T08:43:14;3.60;;;1.30;;
35576;SDS011;21680;52.400;16.920;2024-02-23T08:45:39;4.10;;;0.90;;
35576;SDS011;21680;52.400;16.920;2024-02-23T08:48:05;2.90;;;0.80;;
35576;SDS011;21680;52.400;16.920;2024-02-23T08:50:32;2.10;;;0.70;;
35576;SDS011;21680;52.400;16.920;2024-02-23T08:52:57;3.60;;;0.80;;
35576;SDS011;21680;52.400;16.920;2024-02-23T08:55:22;0.90;;;0.70;;
35576;SDS011;21680;52.400;16.920;2024-02-23T08:57:48;2.20;;;0.80;;
35576;SDS011;21680;52.400;16.920;2024-02-23T09:00:14;4.10;;;0.80;;
35576;SDS011;21680;52.400;16.920;2024-02-23T09:02:39;1.90;;;0.80;;
35576;SDS011;21680;52.400;16.920;2024-02-23T09:05:07;4.50;;;1.00;;
35576;SDS011;21680;52.400;16.920;2024-02-23T09:07:33;3.50;;;1.10;;
35576;SDS011;21680;52.400;16.920;2024-02-23T09:09:58;4.00;;;1.10;;
35576;SDS011;21680;52.400;16.920;2024-02-23T09:12:23;2.50;;;1.00;;
35576;SDS011;21680;52.400;16.920;2024-02-23T09:14:49;2.50;;;0.90;;
35576;SDS011;21680;52.400;16.920;2024-02-23T09:17:14;3.50;;;1.40;;
35576;SDS011;21680;52.400;16.920;2024-02-23T09:19:40;2.70;;;0.90;;
35576;SDS011;21680;52.400;16.920;2024-02-23T09:22:05;1.60;;;0.90;;
35576;SDS011;21680;52.400;16.920;2024-02-23T09:24:30;1.70;;;0.90;;
35576;SDS011;21680;52.400;16.920;2024-02-23T09:26:55;1.40;;;1.00;;
35576;SDS011;21680;52.400;16.920;2024-02-23T09:29:21;5.80;;;0.80;;
35576;SDS011;21680;52.400;16.920;2024-02-23T09:31:46;3.90;;;0.60;;
35576;SDS011;21680;52.400;16.920;2024-02-23T09:34:12;0.90;;;0.60;;
35576;SDS011;21680;52.400;16.920;2024-02-23T09:36:38;2.30;;;0.80;;
35576;SDS011;21680;52.400;16.920;2024-02-23T09:39:03;4.70;;;1.40;;
35576;SDS011;21680;52.400;16.920;2024-02-23T09:41:29;2.10;;;1.10;;
35576;SDS011;21680;52.400;16.920;2024-02-23T09:43:58;2.90;;;1.30;;
35576;SDS011;21680;52.400;16.920;2024-02-23T09:46:24;1.70;;;1.10;;
35576;SDS011;21680;52.400;16.920;2024-02-23T09:48:51;4.30;;;1.30;;
35576;SDS011;21680;52.400;16.920;2024-02-23T09:51:16;5.60;;;1.10;;
35576;SDS011;21680;52.400;16.920;2024-02-23T09:53:42;8.30;;;1.40;;
35576;SDS011;21680;52.400;16.920;2024-02-23T09:56:09;5.20;;;1.40;;
35576;SDS011;21680;52.400;16.920;2024-02-23T09:58:39;4.00;;;0.70;;
35576;SDS011;21680;52.400;16.920;2024-02-23T10:01:06;3.70;;;0.80;;
35576;SDS011;21680;52.400;16.920;2024-02-23T10:03:32;3.80;;;1.20;;
35576;SDS011;21680;52.400;16.920;2024-02-23T10:05:57;1.90;;;1.00;;
35576;SDS011;21680;52.400;16.920;2024-02-23T10:08:22;3.90;;;1.00;;
35576;SDS011;21680;52.400;16.920;2024-02-23T10:10:48;2.20;;;1.30;;
35576;SDS011;21680;52.400;16.920;2024-02-23T10:13:20;2.90;;;1.20;;
35576;SDS011;21680;52.400;16.920;2024-02-23T10:15:48;3.20;;;1.00;;
35576;SDS011;21680;52.400;16.920;2024-02-23T10:18:13;4.10;;;1.50;;
35576;SDS011;21680;52.400;16.920;2024-02-23T10:20:40;4.00;;;1.40;;
35576;SDS011;21680;52.400;16.920;2024-02-23T10:23:05;3.80;;;0.90;;
35576;SDS011;21680;52.400;16.920;2024-02-23T10:25:36;2.10;;;0.70;;
35576;SDS011;21680;52.400;16.920;2024-02-23T10:28:02;3.40;;;0.90;;
35576;SDS011;21680;52.400;16.920;2024-02-23T10:30:29;1.90;;;0.80;;
35576;SDS011;21680;52.400;16.920;2024-02-23T10:32:58;3.60;;;1.40;;
35576;SDS011;21680;52.400;16.920;2024-02-23T10:35:24;2.40;;;1.10;;
35576;SDS011;21680;52.400;16.920;2024-02-23T10:37:50;3.30;;;0.90;;
35576;SDS011;21680;52.400;16.920;2024-02-23T10:40:18;3.80;;;1.10;;
35576;SDS011;21680;52.400;16.920;2024-02-23T10:42:45;3.50;;;0.60;;
35576;SDS011;21680;52.400;16.920;2024-02-23T10:45:20;3.50;;;0.90;;
35576;SDS011;21680;52.400;16.920;2024-02-23T10:47:49;4.50;;;1.00;;
35576;SDS011;21680;52.400;16.920;2024-02-23T10:50:15;1.20;;;0.70;;
35576;SDS011;21680;52.400;16.920;2024-02-23T10:52:44;2.00;;;0.80;;
35576;SDS011;21680;52.400;16.920;2024-02-23T10:55:10;1.20;;;0.80;;
35576;SDS011;21680;52.400;16.920;2024-02-23T10:57:36;5.70;;;0.80;;
35576;SDS011;21680;52.400;16.920;2024-02-23T11:00:02;2.60;;;0.50;;
35576;SDS011;21680;52.400;16.920;2024-02-23T11:03:08;3.30;;;0.80;;
35576;SDS011;21680;52.400;16.920;2024-02-23T11:05:28;1.40;;;0.70;;
35576;SDS011;21680;52.400;16.920;2024-02-23T11:07:57;1.80;;;0.70;;
35576;SDS011;21680;52.400;16.920;2024-02-23T11:10:23;1.30;;;0.50;;
35576;SDS011;21680;52.400;16.920;2024-02-23T11:13:02;0.60;;;0.40;;
35576;SDS011;21680;52.400;16.920;2024-02-23T11:15:33;1.00;;;0.70;;
35576;SDS011;21680;52.400;16.920;2024-02-23T11:18:04;5.60;;;1.00;;
35576;SDS011;21680;52.400;16.920;2024-02-23T11:20:53;3.90;;;1.10;;
35576;SDS011;21680;52.400;16.920;2024-02-23T11:23:19;2.20;;;1.00;;
35576;SDS011;21680;52.400;16.920;2024-02-23T11:25:58;4.20;;;0.70;;
35576;SDS011;21680;52.400;16.920;2024-02-23T11:28:41;2.30;;;0.90;;
35576;SDS011;21680;52.400;16.920;2024-02-23T11:31:21;2.00;;;0.70;;
35576;SDS011;21680;52.400;16.920;2024-02-23T11:33:51;1.00;;;0.60;;
35576;SDS011;21680;52.400;16.920;2024-02-23T11:36:38;2.20;;;0.60;;
35576;SDS011;21680;52.400;16.920;2024-02-23T11:39:03;1.60;;;0.50;;
35576;SDS011;21680;52.400;16.920;2024-02-23T11:41:28;1.50;;;0.60;;
35576;SDS011;21680;52.400;16.920;2024-02-23T11:43:54;2.30;;;1.00;;
35576;SDS011;21680;52.400;16.920;2024-02-23T11:46:21;2.40;;;0.80;;
35576;SDS011;21680;52.400;16.920;2024-02-23T11:48:47;1.50;;;0.50;;
35576;SDS011;21680;52.400;16.920;2024-02-23T11:51:19;4.70;;;0.50;;
35576;SDS011;21680;52.400;16.920;2024-02-23T11:53:49;5.30;;;0.70;;
35576;SDS011;21680;52.400;16.920;2024-02-23T11:56:15;1.50;;;0.70;;
35576;SDS011;21680;52.400;16.920;2024-02-23T11:58:41;5.00;;;1.00;;
35576;SDS011;21680;52.400;16.920;2024-02-23T12:01:07;2.70;;;1.00;;
35576;SDS011;21680;52.400;16.920;2024-02-23T12:03:32;1.80;;;0.90;;
35576;SDS011;21680;52.400;16.920;2024-02-23T12:06:01;3.40;;;0.70;;
35576;SDS011;21680;52.400;16.920;2024-02-23T12:08:30;3.00;;;1.00;;
35576;SDS011;21680;52.400;16.920;2024-02-23T12:11:02;1.40;;;0.80;;
35576;SDS011;21680;52.400;16.920;2024-02-23T12:13:29;2.90;;;0.90;;
35576;SDS011;21680;52.400;16.920;2024-02-23T12:15:54;3.30;;;1.00;;
35576;SDS011;21680;52.400;16.920;2024-02-23T12:18:23;1.20;;;0.80;;
35576;SDS011;21680;52.400;16.920;2024-02-23T12:20:51;2.70;;;1.10;;
35576;SDS011;21680;52.400;16.920;2024-02-23T12:23:16;3.10;;;0.90;;
35576;SDS011;21680;52.400;16.920;2024-02-23T12:25:52;2.50;;;0.90;;
35576;SDS011;21680;52.400;16.920;2024-02-23T12:28:19;6.60;;;0.90;;
35576;SDS011;21680;52.400;16.920;2024-02-23T12:30:45;2.30;;;0.90;;
35576;SDS011;21680;52.400;16.920;2024-02-23T12:33:12;2.00;;;0.70;;
35576;SDS011;21680;52.400;16.920;2024-02-23T12:35:40;4.70;;;0.90;;
35576;SDS011;21680;52.400;16.920;2024-02-23T12:38:05;1.80;;;0.80;;
35576;SDS011;21680;52.400;16.920;2024-02-23T12:40:31;4.20;;;0.60;;
35576;SDS011;21680;52.400;16.920;2024-02-23T12:42:56;1.90;;;0.70;;
35576;SDS011;21680;52.400;16.920;2024-02-23T12:45:22;1.90;;;1.00;;
35576;SDS011;21680;52.400;16.920;2024-02-23T12:47:47;2.40;;;0.80;;
35576;SDS011;21680;52.400;16.920;2024-02-23T12:50:12;8.10;;;1.10;;
35576;SDS011;21680;52.400;16.920;2024-02-23T12:52:37;3.20;;;1.60;;
35576;SDS011;21680;52.400;16.920;2024-02-23T12:55:03;2.80;;;1.10;;
35576;SDS011;21680;52.400;16.920;2024-02-23T12:57:29;2.10;;;0.90;;
35576;SDS011;21680;52.400;16.920;2024-02-23T12:59:54;2.90;;;0.80;;
35576;SDS011;21680;52.400;16.920;2024-02-23T13:02:20;3.00;;;1.00;;
35576;SDS011;21680;52.400;16.920;2024-02-23T13:04:46;2.20;;;0.70;;
35576;SDS011;21680;52.400;16.920;2024-02-23T13:07:17;4.00;;;0.90;;
35576;SDS011;21680;52.400;16.920;2024-02-23T13:09:42;2.30;;;0.90;;
35576;SDS011;21680;52.400;16.920;2024-02-23T13:12:08;1.70;;;1.00;;
35576;SDS011;21680;52.400;16.920;2024-02-23T13:14:34;2.40;;;1.00;;
35576;SDS011;21680;52.400;16.920;2024-02-23T13:16:59;3.30;;;0.90;;
35576;SDS011;21680;52.400;16.920;2024-02-23T13:19:24;5.50;;;1.40;;
35576;SDS011;21680;52.400;16.920;2024-02-23T13:21:50;2.60;;;0.90;;
35576;SDS011;21680;52.400;16.920;2024-02-23T13:24:15;2.10;;;0.90;;
35576;SDS011;21680;52.400;16.920;2024-02-23T13:26:41;3.90;;;1.00;;
35576;SDS011;21680;52.400;16.920;2024-02-23T13:29:06;7.40;;;1.70;;
35576;SDS011;21680;52.400;16.920;2024-02-23T13:31:32;3.00;;;0.80;;
35576;SDS011;21680;52.400;16.920;2024-02-23T13:33:57;2.90;;;1.00;;
35576;SDS011;21680;52.400;16.920;2024-02-23T13:36:22;6.50;;;1.10;;
35576;SDS011;21680;52.400;16.920;2024-02-23T13:38:47;3.50;;;1.10;;
35576;SDS011;21680;52.400;16.920;2024-02-23T13:41:13;5.20;;;1.10;;
35576;SDS011;21680;52.400;16.920;2024-02-23T13:43:38;2.90;;;0.90;;
35576;SDS011;21680;52.400;16.920;2024-02-23T13:46:04;3.90;;;1.00;;
35576;SDS011;21680;52.400;16.920;2024-02-23T13:48:29;1.30;;;0.80;;
35576;SDS011;21680;52.400;16.920;2024-02-23T13:50:55;6.70;;;3.40;;
35576;SDS011;21680;52.400;16.920;2024-02-23T13:53:21;15.80;;;13.90;;
35576;SDS011;21680;52.400;16.920;2024-02-23T13:55:46;6.70;;;4.80;;
35576;SDS011;21680;52.400;16.920;2024-02-23T13:58:12;9.30;;;5.00;;
35576;SDS011;21680;52.400;16.920;2024-02-23T14:00:38;5.20;;;2.20;;
35576;SDS011;21680;52.400;16.920;2024-02-23T14:03:03;4.20;;;1.60;;
35576;SDS011;21680;52.400;16.920;2024-02-23T14:05:29;4.20;;;1.20;;
35576;SDS011;21680;52.400;16.920;2024-02-23T14:07:54;3.70;;;1.20;;
35576;SDS011;21680;52.400;16.920;2024-02-23T14:10:20;5.10;;;1.40;;
35576;SDS011;21680;52.400;16.920;2024-02-23T14:12:46;9.00;;;2.00;;
35576;SDS011;21680;52.400;16.920;2024-02-23T14:15:17;9.20;;;2.80;;
35576;SDS011;21680;52.400;16.920;2024-02-23T14:17:42;12.30;;;3.40;;
35576;SDS011;21680;52.400;16.920;2024-02-23T14:20:08;5.70;;;2.00;;
35576;SDS011;21680;52.400;16.920;2024-02-23T14:22:34;4.00;;;1.80;;
35576;SDS011;21680;52.400;16.920;2024-02-23T14:24:59;4.70;;;1.80;;
35576;SDS011;21680;52.400;16.920;2024-02-23T14:27:25;6.30;;;1.80;;
35576;SDS011;21680;52.400;16.920;2024-02-23T14:29:53;2.80;;;1.40;;